Date,TemperatureHighF,TemperatureAvgF,TemperatureLowF,DewpointHighF,DewpointAvgF,DewpointLowF,HumidityHigh,HumidityAvg,HumidityLow,PressureMaxIn,PressureMinIn,WindSpeedMaxMPH,WindSpeedAvgMPH,GustSpeedMaxMPH,PrecipitationSumIn
2012-7-18,94.6,77.4,69.4,74.7,70.7,67.9,100,82,49,29.98,29.81,37,7,37,1.09
2012-7-19,77.0,70.8,65.3,71.9,68.1,62.8,99,91,78,30.07,29.86,10,5,31,0.12
2012-7-20,88.5,75.5,63.1,63.6,60.1,53.2,89,62,32,30.14,30.03,9,4,18,0.00
2012-7-21,90.9,78.4,68.0,68.6,65.5,60.5,86,66,45,30.10,29.99,9,3,23,0.00
2012-7-22,91.4,81.0,73.4,70.4,68.5,66.0,89,67,46,30.08,29.93,6,3,20,0.00
2012-7-23,98.8,87.4,77.0,75.7,71.3,66.0,76,60,35,29.93,29.88,11,4,25,0.00
2012-7-24,84.0,76.6,70.7,75.9,69.5,62.9,99,80,62,30.05,29.88,11,3,28,0.40
2012-7-25,100.4,82.7,64.6,76.1,69.3,58.7,98,67,40,29.93,29.53,12,5,34,0.47
2012-7-26,90.1,80.4,69.8,76.6,67.3,55.5,99,69,31,29.77,29.58,10,3,33,0.47
2012-7-27,84.4,75.4,66.2,70.5,65.2,61.9,98,72,50,30.05,29.76,8,3,16,0.08
2012-7-28,89.2,75.9,62.1,66.8,62.5,56.5,99,67,35,30.14,30.04,5,2,16,0.00
2012-7-29,84.6,74.7,66.9,70.2,66.0,62.2,94,75,54,30.08,29.97,6,3,23,0.02
2012-7-30,93.7,82.6,67.8,72.6,68.0,64.2,91,64,44,29.98,29.82,9,3,34,0.13
2012-7-31,92.3,80.1,69.1,72.8,66.3,61.6,99,66,37,29.95,29.85,6,2,18,0.01
2012-8-1,94.6,81.3,66.4,70.1,66.0,59.8,99,64,32,29.96,29.82,6,3,20,0.00
2012-8-2,93.0,83.0,74.7,69.2,66.4,61.6,80,59,38,29.88,29.81,5,2,18,0.00
2012-8-3,94.5,83.2,69.8,71.5,68.3,65.3,90,63,41,29.91,29.83,7,3,24,0.00
2012-8-4,93.2,76.5,70.2,75.0,70.4,66.6,99,83,46,29.92,29.68,11,2,23,0.15
2012-8-5,82.2,72.7,63.9,68.3,58.1,49.3,92,63,32,30.15,29.92,6,3,31,0.00
2012-8-6,80.6,68.3,57.4,71.0,57.2,52.5,98,71,38,30.17,29.88,4,1,20,0.00
2012-8-7,95.2,81.0,68.9,66.0,59.7,55.4,82,51,29,29.99,29.88,7,2,24,0.01
2012-8-8,84.0,70.8,64.4,71.4,66.5,63.7,99,87,53,30.04,29.95,5,2,16,0.22
2012-8-9,68.9,64.1,58.8,65.9,62.6,57.7,99,95,81,29.98,29.91,11,3,31,0.33
2012-8-10,78.3,67.0,58.1,59.9,54.6,46.4,99,69,33,30.01,29.93,13,5,35,0.01
2012-8-11,82.8,67.7,52.7,55.3,50.4,44.0,85,58,26,30.04,29.96,8,2,24,0.00
2012-8-12,81.3,68.3,57.6,56.9,53.9,47.8,89,62,33,30.01,29.95,8,2,18,0.02
2012-8-13,82.9,69.0,60.4,63.4,59.6,55.3,99,74,42,30.00,29.91,6,1,20,0.06
2012-8-14,85.8,73.2,59.4,64.4,59.1,52.7,98,65,34,29.96,29.88,4,1,15,0.00
2012-8-15,90.5,76.7,66.2,64.8,60.6,52.0,87,61,27,29.93,29.82,11,3,28,0.00
2012-8-16,76.8,70.0,63.0,69.4,60.8,52.8,99,74,48,29.96,29.70,11,4,35,0.57
2012-8-17,78.1,66.0,53.8,53.5,49.0,40.8,90,58,27,30.02,29.95,5,2,20,0.06
2012-8-18,82.0,67.3,52.0,53.5,48.2,41.7,90,56,25,30.03,29.92,6,1,16,0.00
2012-8-19,81.1,65.9,54.9,59.7,54.4,51.4,94,69,37,29.99,29.89,6,1,26,0.01
2012-8-20,79.9,66.6,52.9,60.3,50.8,33.8,99,63,19,30.01,29.94,5,1,20,0.01
2012-8-21,84.9,70.8,52.2,55.5,48.2,37.7,92,51,21,30.09,30.01,5,2,15,0.00
2012-8-22,90.3,73.4,57.9,56.6,52.0,46.5,79,51,24,30.11,29.98,9,3,20,0.00
2012-8-23,94.1,80.1,69.6,61.3,56.7,52.8,60,46,27,30.05,29.95,6,4,22,0.00
2012-8-24,95.7,81.0,70.3,62.6,58.2,51.2,67,48,23,30.02,29.93,10,3,26,0.00
2012-8-25,94.6,81.5,68.0,62.9,59.1,52.2,78,49,25,30.03,29.95,10,3,26,0.00
2012-8-26,81.1,73.9,69.6,72.7,68.4,61.4,99,84,59,30.01,29.95,5,2,15,0.12
2012-8-27,89.6,79.1,64.8,72.6,59.1,48.2,99,57,26,30.08,30.00,6,2,24,0.00
2012-8-28,88.9,74.4,59.5,65.1,60.3,55.6,97,65,33,30.15,30.01,4,2,15,0.00
2012-8-29,91.6,77.6,63.7,65.5,62.2,59.4,89,62,37,30.08,29.95,7,3,20,0.00
2012-8-30,95.0,81.5,69.3,65.9,64.0,61.2,82,58,34,29.99,29.86,11,5,33,0.00
2012-8-31,96.3,81.1,70.2,70.7,63.5,55.3,74,57,34,30.10,29.92,8,3,18,0.00
2012-9-1,77.9,72.0,66.4,58.8,56.4,52.5,75,59,43,30.11,30.00,9,5,25,0.00
2012-9-2,88.2,75.5,64.6,69.8,64.9,58.1,90,71,53,30.01,29.90,8,4,23,0.00
2012-9-3,95.5,77.9,64.6,73.3,67.3,60.4,96,72,39,29.96,29.84,5,2,17,0.04
2012-9-4,97.2,82.9,65.1,74.8,66.2,58.6,100,63,32,29.93,29.77,12,2,58,0.34
2012-9-5,86.7,74.5,63.1,64.0,62.1,58.8,97,68,44,29.93,29.74,18,4,34,0.12
2012-9-6,85.8,72.7,61.5,62.6,53.9,42.4,94,57,23,29.98,29.83,6,1,18,0.00
2012-9-7,76.6,64.4,56.5,65.0,57.9,50.4,95,80,60,29.92,29.82,11,2,30,0.04
2012-9-8,73.8,60.8,51.3,57.4,50.1,46.5,100,71,40,29.93,29.75,12,3,30,0.40
2012-9-9,75.7,61.7,51.4,56.0,51.4,46.2,99,73,37,30.14,29.89,8,2,23,0.01
2012-9-10,81.9,67.1,52.5,53.1,50.5,47.4,97,59,31,30.19,30.03,8,4,24,0.00
2012-9-11,88.3,72.0,58.6,57.7,54.6,50.7,80,57,33,30.08,29.95,12,5,28,0.00
2012-9-12,89.6,73.2,62.2,62.4,53.6,37.2,80,53,31,30.17,30.01,9,5,31,0.00
2012-9-13,62.2,57.4,52.0,53.5,50.0,41.7,100,77,47,30.33,30.17,8,2,26,0.01
2012-9-14,79.9,63.4,48.9,54.9,46.5,36.6,99,61,26,30.32,30.25,7,2,24,0.01
2012-9-15,83.5,66.2,46.2,55.6,45.1,36.4,97,54,19,30.30,30.09,9,2,25,0.00
2012-9-16,79.7,68.8,58.3,51.7,47.2,41.0,74,49,26,30.11,29.92,11,4,26,0.02
2012-9-17,75.4,62.8,50.2,61.7,54.2,48.3,94,74,60,29.94,29.78,7,3,28,0.00
2012-9-18,61.0,51.5,42.6,48.1,38.2,30.0,97,65,33,30.01,29.87,10,3,32,0.01
2012-9-19,77.7,61.0,39.4,55.0,41.1,33.6,86,52,27,30.01,29.67,15,6,42,0.09
2012-9-20,69.1,59.7,50.5,47.4,39.0,25.1,82,50,19,29.91,29.83,14,4,38,0.01
2012-9-21,61.7,54.8,48.7,51.5,46.0,36.7,95,73,52,29.91,29.77,13,4,30,0.07
2012-9-22,61.0,47.4,38.7,48.5,40.8,36.3,99,80,49,30.17,29.74,10,3,26,0.12
2012-9-23,62.8,49.5,36.0,43.7,33.6,26.2,97,59,26,30.25,30.17,7,2,25,0.00
2012-9-24,74.1,57.1,39.6,41.2,36.2,30.6,91,51,24,30.19,29.81,16,6,40,0.02
2012-9-25,83.5,66.6,53.4,49.7,44.5,36.4,85,49,19,29.90,29.76,7,3,24,0.00
2012-9-26,71.1,57.0,45.9,49.3,41.7,34.8,99,63,27,30.19,29.91,8,3,23,0.00
2012-9-27,65.7,52.3,37.8,47.2,41.0,35.9,94,68,41,30.27,30.17,10,2,24,0.00
2012-9-28,77.7,56.7,39.7,49.0,41.0,33.8,99,63,21,30.23,30.09,4,1,15,0.00
2012-9-29,83.3,63.4,48.0,47.6,41.6,32.2,92,54,17,30.11,29.95,7,2,20,0.00
2012-9-30,75.4,56.8,43.2,53.3,43.7,38.8,99,66,30,30.02,29.91,8,2,18,0.00
2012-10-1,69.3,56.4,44.1,51.5,45.5,41.2,95,69,44,29.95,29.82,4,1,10,0.01
2012-10-2,76.8,60.0,44.8,53.3,48.5,43.4,96,69,37,29.93,29.83,7,2,17,0.01
2012-10-3,76.8,59.7,43.2,56.6,49.1,42.9,99,72,34,29.99,29.91,7,2,16,0.00
2012-10-4,68.0,57.7,46.4,54.2,45.3,32.9,95,65,43,30.10,29.92,14,6,34,0.09
2012-10-5,52.9,45.4,40.3,33.2,28.9,23.3,73,53,33,30.13,30.03,13,6,37,0.00
2012-10-6,48.7,42.4,38.1,28.8,27.4,25.2,63,55,41,30.17,30.03,7,3,26,0.00
2012-10-7,54.1,44.3,38.1,27.8,21.7,12.8,62,43,19,30.18,30.05,9,3,25,0.00
2012-10-8,64.6,50.2,36.7,32.5,27.6,19.2,64,43,28,30.07,29.86,14,7,46,0.00
2012-10-9,61.9,50.5,42.6,46.9,38.6,32.3,97,66,45,29.88,29.75,13,7,34,0.13
2012-10-10,52.3,43.6,35.8,38.1,29.5,23.5,84,60,34,30.11,29.88,10,5,33,0.01
2012-10-11,63.5,48.5,38.8,43.1,31.0,21.2,67,51,34,30.33,29.98,18,6,48,0.05
2012-10-12,58.1,43.4,28.4,34.9,25.0,11.6,82,52,17,30.45,30.20,8,3,25,0.00
2012-10-13,62.4,52.0,41.5,62.2,50.5,33.0,99,95,64,30.21,29.72,8,4,23,0.73
2012-10-14,63.7,54.7,46.4,63.4,54.1,43.2,99,98,86,29.77,29.47,14,4,33,1.74
2012-10-15,64.0,51.1,40.1,43.2,40.5,36.9,93,69,41,29.94,29.78,8,2,26,0.01
2012-10-16,71.6,56.1,43.9,53.6,45.1,40.9,89,69,42,29.90,29.47,14,5,37,0.00
2012-10-17,69.3,59.6,52.0,58.0,52.5,48.7,99,79,53,29.46,29.27,12,5,28,0.50
2012-10-18,51.8,46.1,43.3,51.5,43.7,41.9,99,91,82,29.40,29.25,12,7,26,0.08
2012-10-19,54.7,46.2,43.0,46.2,43.3,41.6,99,90,67,29.65,29.39,7,2,20,0.06
2012-10-20,59.4,46.6,38.5,44.2,41.4,38.2,99,84,54,29.91,29.65,9,2,24,0.14
2012-10-21,71.4,49.9,37.4,50.6,43.4,37.1,99,81,45,29.99,29.90,9,2,23,0.00
2012-10-22,61.3,56.9,50.9,61.1,55.8,49.7,99,96,82,29.95,29.87,9,2,18,0.48
2012-10-23,65.5,60.1,55.0,65.3,59.8,54.8,99,99,99,29.92,29.82,8,3,16,0.12
2012-10-24,78.8,69.2,61.5,68.0,65.0,61.2,99,87,67,29.89,29.75,12,4,23,0.00
2012-10-25,70.0,60.3,39.7,66.2,56.5,32.1,99,87,73,30.08,29.56,17,8,47,0.37
2012-10-26,50.7,40.6,33.4,31.6,28.2,26.4,76,62,41,30.33,30.08,15,5,31,0.00
2012-10-27,47.7,38.2,27.3,30.8,22.7,16.6,91,56,32,30.35,30.26,13,3,23,0.00
2012-10-28,52.5,37.6,26.2,30.5,25.3,20.7,86,63,40,30.34,30.27,11,3,20,0.00
2012-10-29,52.3,40.0,27.1,33.1,25.3,19.4,91,60,28,30.34,30.14,13,4,23,0.00
2012-10-30,49.1,41.6,35.2,29.0,23.7,15.7,75,50,27,30.14,29.86,19,11,39,0.00
2012-10-31,50.2,38.6,29.8,31.9,24.0,14.2,82,58,26,29.88,29.81,15,7,30,0.00
2012-11-1,50.5,39.0,34.7,21.2,19.2,18.0,53,45,30,29.88,29.84,6,2,16,0.00
2012-11-2,49.6,37.5,28.8,32.3,28.4,25.8,98,72,44,30.15,29.94,8,2,16,0.00
2012-11-3,51.1,37.2,32.4,33.2,29.3,27.3,87,74,50,30.22,30.15,7,2,15,0.00
2012-11-4,52.7,38.9,29.3,32.9,28.8,24.3,90,69,41,30.24,30.15,6,2,11,0.00
2012-11-5,48.2,35.0,25.0,34.1,29.5,23.3,99,82,54,30.20,30.07,8,2,16,0.00
2012-11-6,38.2,34.8,30.9,37.9,33.8,29.6,99,96,82,30.08,29.83,6,3,18,0.12
2012-11-7,42.5,38.9,36.4,38.7,37.2,36.1,99,94,82,30.13,29.88,6,2,14,0.01
2012-11-8,53.6,44.0,36.4,38.1,35.9,33.3,97,74,52,30.15,30.02,9,4,24,0.00
2012-11-9,51.1,43.3,35.1,44.6,40.0,34.9,99,89,72,30.06,29.96,9,4,18,0.00
2012-11-10,68.9,58.2,46.0,55.3,50.6,43.7,95,77,59,30.00,29.73,16,7,35,0.01
2012-11-11,62.8,55.3,33.3,58.3,50.0,31.0,99,83,65,29.92,29.61,20,8,44,0.65
2012-11-12,33.3,27.6,24.5,31.2,20.1,15.0,92,73,62,30.29,29.91,21,2,36,0.54
2012-11-13,44.6,32.4,23.7,24.4,20.8,16.1,82,64,40,30.44,30.29,8,2,17,0.00
2012-11-14,50.6,38.2,30.9,31.2,27.5,24.3,77,66,42,30.43,30.31,13,5,30,0.00
2012-11-15,49.2,36.7,32.7,31.8,29.6,28.6,87,76,50,30.31,30.28,7,3,17,0.00
2012-11-16,51.6,38.3,28.8,42.0,35.1,27.9,99,89,65,30.45,30.33,7,2,13,0.00
2012-11-17,57.8,43.5,30.9,38.1,34.2,30.7,99,73,41,30.48,30.39,9,3,22,0.00
2012-11-18,60.7,46.6,35.6,37.7,34.3,31.5,89,64,36,30.39,30.25,8,4,23,0.00
2012-11-19,53.8,47.1,40.6,45.9,38.2,35.3,86,72,55,30.26,30.06,6,3,16,0.00
2012-11-20,61.3,50.5,41.2,49.2,46.0,40.9,99,86,60,30.15,30.04,5,2,15,0.00
2012-11-21,60.1,45.7,33.3,47.9,41.4,33.0,99,87,58,30.17,29.98,9,4,26,0.00
2012-11-22,64.9,52.7,39.0,48.7,43.3,29.4,92,71,51,29.99,29.67,23,10,52,0.21
2012-11-23,39.0,29.2,25.3,30.1,18.5,15.7,72,64,57,30.21,29.84,26,13,57,0.39
2012-11-24,37.2,28.0,22.6,21.3,17.6,14.7,73,65,46,30.23,29.88,12,6,25,0.00
2012-11-25,40.6,32.3,25.9,25.3,22.8,18.5,86,68,53,30.10,29.81,10,4,22,0.00
2012-11-26,33.1,25.1,17.2,23.8,14.2,7.0,82,63,44,30.35,30.08,10,4,24,0.00
2012-11-27,34.0,24.5,14.4,16.0,11.9,7.3,83,59,41,30.35,30.18,12,4,31,0.00
2012-11-28,46.4,34.9,25.2,24.9,21.3,17.1,75,58,37,30.33,30.18,9,4,20,0.00
2012-11-29,55.3,40.4,29.7,33.5,29.3,24.4,88,66,42,30.18,30.04,8,3,18,0.00
2012-11-30,44.1,38.6,35.8,39.9,36.4,33.5,96,92,80,30.16,30.04,12,6,23,0.00
2012-12-1,53.1,44.5,35.9,52.9,43.3,34.6,99,96,82,30.14,29.81,7,4,20,0.07
2012-12-2,60.2,50.1,39.6,53.1,47.1,39.4,99,90,63,30.03,29.81,7,3,16,0.00
2012-12-3,63.8,53.4,40.4,61.4,51.1,40.1,99,92,72,30.00,29.68,14,6,32,0.01
2012-12-4,55.1,44.3,26.7,41.6,30.1,15.8,79,58,41,30.32,29.91,16,7,34,0.00
2012-12-5,37.7,29.6,19.8,27.6,18.6,12.8,86,65,42,30.42,30.16,12,4,21,0.00
2012-12-6,44.1,38.1,31.5,37.6,32.5,27.6,87,80,71,30.15,29.83,11,5,26,0.00
2012-12-7,42.3,36.2,32.4,34.1,28.6,26.3,87,74,58,29.97,29.91,8,4,18,0.00
2012-12-8,42.0,32.9,27.4,30.9,28.1,24.6,92,83,63,30.09,29.92,9,5,20,0.00
2012-12-9,34.9,32.2,30.8,34.6,31.3,28.5,99,96,83,30.07,29.68,13,5,26,0.00
2012-12-10,33.0,29.1,26.5,32.0,26.9,22.4,99,92,78,29.91,29.68,10,1,22,0.00
2012-12-11,31.5,26.0,17.5,25.6,20.5,15.3,99,80,63,30.06,29.89,15,4,34,0.00
2012-12-12,45.6,34.1,25.8,28.3,25.0,21.8,87,70,47,30.18,30.06,11,5,32,0.17
2012-12-13,47.4,36.8,29.9,27.9,25.2,22.9,84,64,44,30.16,30.02,14,5,37,0.00
2012-12-14,50.6,36.4,24.2,33.0,28.7,21.9,95,75,50,30.16,29.94,8,2,15,0.00
2012-12-15,44.1,41.2,35.9,43.9,39.8,32.7,99,95,75,29.94,29.51,12,4,32,0.38
2012-12-16,44.0,38.7,33.1,43.7,36.8,31.7,99,93,87,29.70,29.50,12,5,28,0.06
2012-12-17,35.0,29.4,25.1,32.3,26.4,22.8,96,88,73,29.74,29.68,8,4,18,0.00
2012-12-18,30.5,28.2,25.2,30.2,27.2,23.0,99,96,89,29.83,29.60,8,4,17,0.00
2012-12-19,33.5,30.4,25.2,31.6,29.5,25.0,99,96,87,30.03,29.50,17,4,30,0.00
2012-12-20,31.9,30.7,26.1,31.7,30.5,25.9,99,99,99,29.83,29.24,23,10,53,0.47
2012-12-21,26.1,19.4,13.0,25.9,14.7,8.6,99,82,70,30.17,29.59,23,10,39,0.00
2012-12-22,31.6,18.9,10.4,18.2,13.3,7.8,97,80,51,30.18,29.93,7,2,15,0.00
2012-12-23,23.5,17.4,10.6,19.7,15.1,9.9,98,91,83,30.05,29.91,8,3,18,0.00
2012-12-24,23.6,20.7,14.9,20.3,17.2,11.8,97,86,79,30.12,29.91,10,4,20,0.00
2012-12-25,23.7,15.0,9.0,13.9,10.4,6.6,95,82,62,30.34,30.12,10,3,20,0.00
2012-12-26,25.9,20.9,16.4,20.3,17.4,13.0,95,86,78,30.25,30.09,15,8,31,0.00
2012-12-27,27.4,22.9,20.5,20.9,18.4,16.6,95,83,72,30.19,30.09,13,4,22,0.00
2012-12-28,29.8,25.0,22.1,29.1,24.0,20.6,99,96,87,30.09,29.88,7,2,12,0.00
2012-12-29,24.6,21.4,12.9,22.4,19.0,10.8,99,91,82,30.15,29.88,12,6,21,0.00
2012-12-30,25.0,15.6,8.4,21.8,11.4,7.0,99,84,59,30.26,30.00,9,4,18,0.00
2012-12-31,29.8,19.5,6.3,24.7,14.8,2.7,86,82,74,30.14,29.92,14,5,28,0.00
2013-1-1,19.5,6.5,-0.9,6.0,0.9,-3.2,90,78,51,30.22,29.70,8,2,18,0.00